Alta, California
Current Conditions -  °F | °C
As of 5:52 PM on Friday 28 Nov 2014 (Local Time) from KBLU Reporting Station
Clear Clear  
Wind Chill: 41°   Ceiling: Unl
Heat Index: 45°   Visibility: 10mi
Dew Point: 24°   Wind: 8mph
Humidity: 44%   Direction: 160°SSE
Pressure: 29.95"   Gusts: NA
Location:  39.21°N, 120.81°W
Report Text: KBLU 290152Z AUTO 16007KT 10SM CLR 07/M04 A2995 RMK AO2 SLP106 T00721044
Loading
Personal Weather Stations






























Interactive Weather Map New forecast layout! Learn more

10-Day Weather Forecast

Advertisements
Track Severe Weather on mobile